Aviation Digital Data Service (ADDS)

Output produced by METARs form (0738 UTC 18 September 2014)
found at http://www.aviationweather.gov/adds/metars/
 
KBFD 180730Z AUTO 00000KT 10SM SCT001 BKN043 05/04 A3001 RMK AO2 T00500039
KBFD 180721Z AUTO 00000KT 10SM BKN001 OVC043 05/03 A3001 RMK AO2 T00500033
KBFD 180653Z AUTO 00000KT 10SM FEW002 BKN041 06/04 A3001 RMK AO2 SLP161 T00560039
KBFD 180627Z AUTO 00000KT 10SM SCT002 05/03 A3001 RMK AO2 T00500033
KBFD 180553Z AUTO 00000KT 8SM CLR 04/03 A3002 RMK AO2 SLP165 T00440033 10111 20044 51001
KBFD 180453Z AUTO 00000KT 10SM CLR 06/04 A3002 RMK AO2 SLP165 T00560039 401780011
KBFD 180353Z AUTO 12003KT 5SM BR CLR 06/04 A3002 RMK AO2 SLP167 T00560044
KBFD 180253Z AUTO 00000KT 10SM CLR 07/06 A3001 RMK AO2 SLP165 T00720056 51005
KBFD 180153Z AUTO 00000KT 10SM CLR 07/06 A3001 RMK AO2 SLP164 T00720056
KBFD 180053Z AUTO 00000KT 10SM CLR 09/07 A3000 RMK AO2 SLP164 T00890072
KBFD 172353Z AUTO 00000KT 10SM SCT050 11/08 A3000 RMK AO2 SLP165 T01110078 10178 20111 51001
KBFD 172253Z AUTO 00000KT 10SM FEW055 15/06 A3000 RMK AO2 SLP163 T01500061
KBFD 172153Z AUTO 30006KT 10SM FEW055 17/05 A3000 RMK AO2 SLP160 T01670050
KBFD 172053Z AUTO 30004KT 10SM CLR 17/04 A3000 RMK AO2 SLP158 T01720044 56005
KBFD 171953Z AUTO 28006KT 10SM FEW049 17/04 A3000 RMK AO2 SLP160 T01720044
KBFD 171853Z AUTO VRB04KT 10SM BKN046 16/05 A3000 RMK AO2 SLP161 T01610050
KBFD 171753Z AUTO VRB04KT 10SM CLR 16/05 A3001 RMK AO2 SLP165 T01610050 10172 20033 56017
KBFD 171653Z AUTO VRB03KT 10SM CLR 16/04 A3003 RMK AO2 SLP171 T01560044
KBFD 171553Z AUTO 18006KT 10SM CLR 15/04 A3005 RMK AO2 SLP178 T01500039
KBFD 171453Z AUTO 17006KT 10SM CLR 13/07 A3007 RMK AO2 SLP185 T01280067 58005
KBFD 171353Z AUTO 23004KT 10SM CLR 12/08 A3008 RMK AO2 SLP188 T01220083
KBFD 171253Z AUTO 00000KT 10SM CLR 08/07 A3008 RMK AO2 SLP191 T00830067
KBFD 171153Z AUTO 00000KT 10SM CLR 03/02 A3008 RMK AO2 SLP194 T00330017 10044 20011 53003
KBFD 171053Z AUTO 00000KT 10SM FEW001 02/01 A3008 RMK AO2 SLP190 T00170006
KBFD 170953Z AUTO 00000KT 10SM CLR 02/01 A3007 RMK AO2 SLP186 T00220011
KBFD 170853Z AUTO 00000KT 10SM SCT026 03/02 A3007 RMK AO2 SLP187 T00330022 58002
KBFD 170805Z AUTO 00000KT 10SM BKN018 03/02 A3007 RMK AO2 T00330017
KBFD 170753Z AUTO 00000KT 10SM FEW018 03/01 A3008 RMK AO2 SLP186 T00280011
KBFD 170653Z AUTO 00000KT 10SM CLR 02/01 A3008 RMK AO2 SLP189 T00220006
KBFD 170553Z AUTO 00000KT 10SM CLR 03/02 A3008 RMK AO2 SLP189 T00330017 10100 20028 58001
KBFD 170453Z AUTO 00000KT 10SM CLR 03/02 A3008 RMK AO2 SLP190 T00330022 401670033
KBFD 170353Z AUTO 00000KT 8SM CLR 04/03 A3008 RMK AO2 SLP191 T00390028
KBFD 170253Z AUTO 00000KT 10SM CLR 05/03 A3008 RMK AO2 SLP189 T00500033 50002
KBFD 170153Z AUTO 00000KT 10SM CLR 07/05 A3009 RMK AO2 SLP192 T00670050
KBFD 170053Z AUTO 00000KT 10SM CLR 08/06 A3008 RMK AO2 SLP189 T00780056
KBFD 162353Z AUTO 32004KT 10SM CLR 10/06 A3008 RMK AO2 SLP186 T01000061 10167 20100 51003
KBFD 162253Z AUTO 31007KT 10SM CLR 13/06 A3008 RMK AO2 SLP184 T01330056
KBFD 162153Z AUTO 32007KT 10SM FEW042 15/05 A3007 RMK AO2 SLP181 T01500050
KBFD 162053Z AUTO 31009KT 10SM SCT047 14/06 A3007 RMK AO2 SLP178 T01440061 56006
KBFD 161953Z AUTO 33011KT 10SM SCT045 17/06 A3007 RMK AO2 SLP177 T01670061